Time;durP1;ratioP1;P1;durP2;ratioP2;P2;SDS_P1;SDS_P2;PMS_P1;PMS_P2;Temp;Humidity;BMP_temperature;BMP_pressure;BME280_temperature;BME280_humidity;BME280_pressure;Samples;Min_cycle;Max_cycle;Signal;HPM_P1;HPM_P2
2023/03/27 00:01:16;;;;;;;;;;;;;;;;;;5047544;28;19913;-46
2023/03/27 05:07:59;;;;;;;;;;;;;;;;;;5051042;28;19970;-45
2023/03/27 05:10:25;;;;;;;;;;;;;;;;;;5059876;28;19916;-46
2023/03/27 05:12:51;;;;;;;;;;;;;;;;;;5047797;28;19943;-44
2023/03/27 05:15:17;;;;;;;;;;;;;;;;;;5048784;28;19974;-45
2023/03/27 05:17:43;;;;;;;;;;;;;;;;;;5048443;28;19938;-47
2023/03/27 05:20:18;;;;;;;;;;;;;;;;;;5048786;28;19909;-44
2023/03/27 05:22:44;;;;;;;;;;;;;;;;;;5048520;28;19916;-45
2023/03/27 05:25:11;;;;;;;;;;;;;;;;;;5049116;28;19916;-44
2023/03/27 05:27:39;;;;;;;;;;;;;;;;;;5049002;28;19913;-47
2023/03/27 05:30:05;;;;;;;;;;;;;;;;;;5047847;28;19938;-45
2023/03/27 05:32:31;;;;;;;;;;;;;;;;;;5048324;28;19913;-46
2023/03/27 05:34:57;;;;;;;;;;;;;;;;;;5048700;28;20007;-44
2023/03/27 05:37:22;;;;;;;;;;;;;;;;;;5048404;28;19948;-45
2023/03/27 05:39:50;;;;;;;;;;;;;;;;;;5048345;28;20003;-45
2023/03/27 05:42:15;;;;;;;;;;;;;;;;;;5048481;28;19913;-47
2023/03/27 05:44:44;;;;;;;;;;;;;;;;;;5048816;28;19908;-44
2023/03/27 05:47:11;;;;;;;;;;;;;;;;;;5048283;28;19912;-44
2023/03/27 05:49:37;;;;;;;;;;;;;;;;;;5049096;28;19915;-45
2023/03/27 05:52:03;;;;;;;;;;;;;;;;;;5051929;28;19920;-46
2023/03/27 05:54:29;;;;;;;;;;;;;;;;;;5031099;28;19948;-45
2023/03/27 05:56:54;;;;;;;;;;;;;;;;;;5035507;28;19967;-46
2023/03/27 05:59:20;;;;;;;;;;;;;;;;;;5050541;28;20384;-45
2023/03/27 06:01:47;;;;;;;;;;;;;;;;;;5051198;28;19909;-45
2023/03/27 06:04:14;;;;;;;;;;;;;;;;;;5051255;28;19916;-48
2023/03/27 06:06:41;;;;;;;;;;;;;;;;;;5050885;28;19920;-45
2023/03/27 06:09:08;;;;;;;;;;;;;;;;;;5051178;28;20008;-46
2023/03/27 06:11:35;;;;;;;;;;;;;;;;;;5050848;28;19919;-45
2023/03/27 06:14:01;;;;;;;;;;;;;;;;;;5049361;28;19921;-44
2023/03/27 06:16:28;;;;;;;;;;;;;;;;;;5044976;28;20306;-44
2023/03/27 06:18:54;;;;;;;;;;;;;;;;;;5050362;28;19923;-45
2023/03/27 06:21:20;;;;;;;;;;;;;;;;;;5047848;28;20004;-46
2023/03/27 06:23:46;;;;;;;;;;;;;;;;;;5050313;28;20003;-45
2023/03/27 06:26:12;;;;;;;;;;;;;;;;;;5051601;28;19916;-44
2023/03/27 06:28:39;;;;;;;;;;;;;;;;;;5065237;28;19967;-43
2023/03/27 06:31:05;;;;;;;;;;;;;;;;;;5050198;28;19913;-45
2023/03/27 06:33:32;;;;;;;;;;;;;;;;;;5050424;28;19955;-44
2023/03/27 06:35:59;;;;;;;;;;;;;;;;;;5049857;28;20395;-45
2023/03/27 06:38:25;;;;;;;;;;;;;;;;;;5050362;28;19913;-44
2023/03/27 06:40:50;;;;;;;;;;;;;;;;;;5050565;28;19909;-43
2023/03/27 06:43:21;;;;;;;;;;;;;;;;;;5048746;28;20280;-44
2023/03/27 06:45:48;;;;;;;;;;;;;;;;;;5031862;28;19909;-44
2023/03/27 06:48:15;;;;;;;;;;;;;;;;;;5049366;28;19920;-48
2023/03/27 06:50:41;;;;;;;;;;;;;;;;;;5053581;28;19969;-44
2023/03/27 06:53:07;;;;;;;;;;;;;;;;;;5053495;28;19909;-45
2023/03/27 06:55:33;;;;;;;;;;;;;;;;;;5053322;28;19916;-46
2023/03/27 06:57:59;;;;;;;;;;;;;;;;;;5053314;28;19912;-46
2023/03/27 07:00:25;;;;;;;;;;;;;;;;;;5053111;28;19916;-45
2023/03/27 07:02:51;;;;;;;;;;;;;;;;;;5051675;28;19913;-44
2023/03/27 07:05:17;;;;;;;;;;;;;;;;;;5053267;28;19909;-45
2023/03/27 07:07:43;;;;;;;;;;;;;;;;;;5052076;28;19912;-44
2023/03/27 07:10:09;;;;;;;;;;;;;;;;;;5052476;28;19999;-44
2023/03/27 07:12:35;;;;;;;;;;;;;;;;;;5053091;28;19987;-44
2023/03/27 07:15:01;;;;;;;;;;;;;;;;;;5053000;28;19909;-44
2023/03/27 07:17:26;;;;;;;;;;;;;;;;;;5052239;28;19923;-45
2023/03/27 07:19:52;;;;;;;;;;;;;;;;;;5034375;28;19935;-45
2023/03/27 07:22:18;;;;;;;;;;;;;;;;;;5051807;28;19913;-46
2023/03/27 07:24:44;;;;;;;;;;;;;;;;;;5053028;28;19924;-44
2023/03/27 07:27:10;;;;;;;;;;;;;;;;;;5051970;28;19952;-43
2023/03/27 07:29:36;;;;;;;;;;;;;;;;;;5050794;28;20411;-45
2023/03/27 07:32:02;;;;;;;;;;;;;;;;;;5052078;28;19913;-45
2023/03/27 07:34:28;;;;;;;;;;;;;;;;;;5052371;28;20300;-45
2023/03/27 07:36:56;;;;;;;;;;;;;;;;;;5052336;28;19925;-43
2023/03/27 07:39:22;;;;;;;;;;;;;;;;;;5050733;28;20411;-46
2023/03/27 07:41:48;;;;;;;;;;;;;;;;;;5052471;28;19909;-45
2023/03/27 07:44:13;;;;;;;;;;;;;;;;;;5027111;28;19917;-44
2023/03/27 07:46:40;;;;;;;;;;;;;;;;;;5035121;28;20304;-45
2023/03/27 07:49:07;;;;;;;;;;;;;;;;;;5051926;28;19967;-45
2023/03/27 07:51:33;;;;;;;;;;;;;;;;;;5049329;28;19935;-46
2023/03/27 07:54:03;;;;;;;;;;;;;;;;;;5040429;28;20463;-45
2023/03/27 07:56:29;;;;;;;;;;;;;;;;;;5051903;28;19913;-46
2023/03/27 07:58:55;;;;;;;;;;;;;;;;;;5049926;28;19927;-47
2023/03/27 08:01:20;;;;;;;;;;;;;;;;;;5049808;28;19913;-46
2023/03/27 08:03:47;;;;;;;;;;;;;;;;;;5049719;28;19913;-45
2023/03/27 08:06:13;;;;;;;;;;;;;;;;;;4954278;28;20379;-46
2023/03/27 08:08:39;;;;;;;;;;;;;;;;;;5019417;28;19963;-45
2023/03/27 08:11:05;;;;;;;;;;;;;;;;;;5048578;28;19921;-47
2023/03/27 08:13:31;;;;;;;;;;;;;;;;;;5048495;28;19913;-46
2023/03/27 08:15:57;;;;;;;;;;;;;;;;;;5050403;28;19919;-44
2023/03/27 08:18:23;;;;;;;;;;;;;;;;;;5049421;28;19922;-45
2023/03/27 08:20:52;;;;;;;;;;;;;;;;;;5049793;28;19912;-45
2023/03/27 08:23:18;;;;;;;;;;;;;;;;;;5049330;28;19913;-45
2023/03/27 08:25:47;;;;;;;;;;;;;;;;;;5050141;28;19999;-45
2023/03/27 08:28:13;;;;;;;;;;;;;;;;;;5048291;28;19924;-44
2023/03/27 08:30:40;;;;;;;;;;;;;;;;;;5049129;28;19917;-45
2023/03/27 08:33:08;;;;;;;;;;;;;;;;;;5050446;28;19940;-44
2023/03/27 08:35:34;;;;;;;;;;;;;;;;;;5050402;28;19968;-46
2023/03/27 08:38:00;;;;;;;;;;;;;;;;;;5050263;28;20455;-45
2023/03/27 08:40:26;;;;;;;;;;;;;;;;;;5050395;28;19913;-44
2023/03/27 08:42:52;;;;;;;;;;;;;;;;;;5049720;28;19913;-45
2023/03/27 08:45:18;;;;;;;;;;;;;;;;;;5049074;28;19912;-45
2023/03/27 08:47:44;;;;;;;;;;;;;;;;;;5051072;28;19944;-44
2023/03/27 08:50:10;;;;;;;;;;;;;;;;;;5049868;28;19923;-44
2023/03/27 08:52:36;;;;;;;;;;;;;;;;;;5032875;28;20283;-44
2023/03/27 08:55:02;;;;;;;;;;;;;;;;;;5051476;28;20264;-44
2023/03/27 08:57:31;;;;;;;;;;;;;;;;;;5050640;28;20016;-45
2023/03/27 08:59:57;;;;;;;;;;;;;;;;;;5051351;28;20350;-44
2023/03/27 09:02:23;;;;;;;;;;;;;;;;;;5050404;28;19920;-45
2023/03/27 09:04:49;;;;;;;;;;;;;;;;;;5050184;28;19912;-46
2023/03/27 09:07:15;;;;;;;;;;;;;;;;;;5050235;28;20007;-45
2023/03/27 09:09:45;;;;;;;;;;;;;;;;;;5050117;28;19927;-45
2023/03/27 09:12:11;;;;;;;;;;;;;;;;;;5045896;28;20387;-47
2023/03/27 09:14:37;;;;;;;;;;;;;;;;;;5049758;28;20007;-46
2023/03/27 09:17:02;;;;;;;;;;;;;;;;;;5049976;28;19983;-45
2023/03/27 09:19:29;;;;;;;;;;;;;;;;;;5050028;28;20350;-45
2023/03/27 09:21:56;;;;;;;;;;;;;;;;;;5050425;28;19919;-46
2023/03/27 09:24:22;;;;;;;;;;;;;;;;;;5049534;28;19917;-45
2023/03/27 09:26:48;;;;;;;;;;;;;;;;;;5050702;28;19917;-45
2023/03/27 09:29:14;;;;;;;;;;;;;;;;;;5049673;28;19917;-45
2023/03/27 09:31:40;;;;;;;;;;;;;;;;;;5050206;28;19909;-44
2023/03/27 09:34:06;;;;;;;;;;;;;;;;;;5050676;28;19916;-44
2023/03/27 09:36:34;;;;;;;;;;;;;;;;;;5049805;28;19986;-44
2023/03/27 09:39:00;;;;;;;;;;;;;;;;;;5049676;28;19916;-44
2023/03/27 09:41:26;;;;;;;;;;;;;;;;;;5049888;28;20011;-44
2023/03/27 09:43:52;;;;;;;;;;;;;;;;;;5049913;28;19972;-45
2023/03/27 09:46:18;;;;;;;;;;;;;;;;;;5050483;28;20015;-45
2023/03/27 09:48:49;;;;;;;;;;;;;;;;;;5049527;28;19960;-44
2023/03/27 09:51:15;;;;;;;;;;;;;;;;;;5059878;28;19958;-46
2023/03/27 09:53:42;;;;;;;;;;;;;;;;;;5048976;28;20000;-45
2023/03/27 09:56:08;;;;;;;;;;;;;;;;;;5051137;28;20395;-47
2023/03/27 09:58:34;;;;;;;;;;;;;;;;;;5049948;28;19921;-45
2023/03/27 10:01:00;;;;;;;;;;;;;;;;;;5050726;28;19919;-45
2023/03/27 10:03:27;;;;;;;;;;;;;;;;;;5050622;28;20366;-45
2023/03/27 10:05:53;;;;;;;;;;;;;;;;;;5051488;28;19909;-45
2023/03/27 10:08:19;;;;;;;;;;;;;;;;;;5051164;28;19963;-44
2023/03/27 10:10:45;;;;;;;;;;;;;;;;;;5051183;28;19920;-45
2023/03/27 10:13:12;;;;;;;;;;;;;;;;;;5051062;28;19932;-44
2023/03/27 10:15:38;;;;;;;;;;;;;;;;;;5049934;28;19929;-44
2023/03/27 10:18:05;;;;;;;;;;;;;;;;;;5050344;28;19917;-45
2023/03/27 10:20:31;;;;;;;;;;;;;;;;;;5050610;28;19913;-44
2023/03/27 10:22:57;;;;;;;;;;;;;;;;;;5050483;28;19913;-44
2023/03/27 10:25:23;;;;;;;;;;;;;;;;;;5051131;28;20319;-44
2023/03/27 10:27:49;;;;;;;;;;;;;;;;;;5050946;28;19947;-45
2023/03/27 10:30:15;;;;;;;;;;;;;;;;;;5050279;28;19967;-45
2023/03/27 10:32:41;;;;;;;;;;;;;;;;;;5050245;28;19944;-45
2023/03/27 10:35:07;;;;;;;;;;;;;;;;;;5050457;28;19948;-44
2023/03/27 10:37:33;;;;;;;;;;;;;;;;;;5052215;28;19964;-44
2023/03/27 10:39:59;;;;;;;;;;;;;;;;;;5054440;28;20030;-44
2023/03/27 10:42:25;;;;;;;;;;;;;;;;;;5054903;28;19932;-44
2023/03/27 10:44:53;;;;;;;;;;;;;;;;;;5054508;28;20552;-45
2023/03/27 10:47:19;;;;;;;;;;;;;;;;;;5054039;28;20269;-45
2023/03/27 10:49:45;;;;;;;;;;;;;;;;;;5053924;28;19913;-45
2023/03/27 10:52:11;;;;;;;;;;;;;;;;;;5053168;28;20394;-45
2023/03/27 10:54:36;;;;;;;;;;;;;;;;;;5054199;28;19915;-45
2023/03/27 10:57:02;;;;;;;;;;;;;;;;;;5053951;28;19912;-44
2023/03/27 10:59:29;;;;;;;;;;;;;;;;;;5054277;28;19919;-44
2023/03/27 11:01:55;;;;;;;;;;;;;;;;;;5053998;28;19912;-44
2023/03/27 11:04:21;;;;;;;;;;;;;;;;;;5053968;28;19908;-47
2023/03/27 11:06:46;;;;;;;;;;;;;;;;;;5051919;28;19956;-46
2023/03/27 11:09:14;;;;;;;;;;;;;;;;;;5052471;28;19917;-45
2023/03/27 11:11:40;;;;;;;;;;;;;;;;;;5051409;28;19909;-45
2023/03/27 11:14:06;;;;;;;;;;;;;;;;;;5051961;28;19936;-44
2023/03/27 11:16:32;;;;;;;;;;;;;;;;;;5051606;28;19951;-45
2023/03/27 11:18:58;;;;;;;;;;;;;;;;;;5051958;28;20267;-45
2023/03/27 11:21:24;;;;;;;;;;;;;;;;;;5051427;28;19923;-45
2023/03/27 11:23:50;;;;;;;;;;;;;;;;;;5052570;28;19980;-45
2023/03/27 11:26:17;;;;;;;;;;;;;;;;;;5051724;28;19905;-45
2023/03/27 11:28:45;;;;;;;;;;;;;;;;;;5051509;28;19915;-45
2023/03/27 11:31:12;;;;;;;;;;;;;;;;;;5051155;28;19975;-45
2023/03/27 11:33:38;;;;;;;;;;;;;;;;;;5064538;28;19912;-44
2023/03/27 11:36:04;;;;;;;;;;;;;;;;;;5071840;28;19991;-44
2023/03/27 11:38:33;;;;;;;;;;;;;;;;;;5064412;28;19916;-45
2023/03/27 11:40:58;;;;;;;;;;;;;;;;;;5070796;28;19912;-45
2023/03/27 11:43:24;;;;;;;;;;;;;;;;;;5072018;28;20017;-45
2023/03/27 11:45:50;;;;;;;;;;;;;;;;;;5071657;28;19919;-44
2023/03/27 11:48:16;;;;;;;;;;;;;;;;;;5071070;28;19919;-45
2023/03/27 11:50:42;;;;;;;;;;;;;;;;;;5071453;28;19934;-45
2023/03/27 11:53:08;;;;;;;;;;;;;;;;;;5070935;28;19934;-45
2023/03/27 11:55:34;;;;;;;;;;;;;;;;;;5071251;28;19919;-45
2023/03/27 11:58:00;;;;;;;;;;;;;;;;;;5070536;28;19917;-44
2023/03/27 12:00:25;;;;;;;;;;;;;;;;;;5071209;28;19938;-45
2023/03/27 12:02:53;;;;;;;;;;;;;;;;;;5071471;28;20299;-45
2023/03/27 12:05:19;;;;;;;;;;;;;;;;;;5070609;28;20561;-45
2023/03/27 12:07:45;;;;;;;;;;;;;;;;;;5070581;28;19938;-46
2023/03/27 12:10:11;;;;;;;;;;;;;;;;;;5070041;28;20363;-43
2023/03/27 12:12:37;;;;;;;;;;;;;;;;;;5070115;28;20553;-45
2023/03/27 12:15:03;;;;;;;;;;;;;;;;;;5070424;28;19916;-44
2023/03/27 12:17:29;;;;;;;;;;;;;;;;;;5070706;28;19936;-48
2023/03/27 12:19:55;;;;;;;;;;;;;;;;;;5070514;28;20022;-44
2023/03/27 12:22:21;;;;;;;;;;;;;;;;;;5073885;28;19919;-45
2023/03/27 12:24:46;;;;;;;;;;;;;;;;;;5070254;28;19913;-44
2023/03/27 12:27:12;;;;;;;;;;;;;;;;;;5069715;28;19920;-46
2023/03/27 12:29:38;;;;;;;;;;;;;;;;;;5071702;28;19912;-44
2023/03/27 12:32:04;;;;;;;;;;;;;;;;;;5081072;28;19958;-45
2023/03/27 12:34:30;;;;;;;;;;;;;;;;;;5070110;28;19913;-43
2023/03/27 12:36:57;;;;;;;;;;;;;;;;;;5070675;28;19912;-45
2023/03/27 12:39:23;;;;;;;;;;;;;;;;;;5070900;28;19916;-45
2023/03/27 12:41:49;;;;;;;;;;;;;;;;;;5070460;28;20322;-45
2023/03/27 12:44:15;;;;;;;;;;;;;;;;;;5069811;28;19919;-45
2023/03/27 12:46:41;;;;;;;;;;;;;;;;;;5070183;28;19962;-45
2023/03/27 12:49:09;;;;;;;;;;;;;;;;;;5070234;28;20367;-45
2023/03/27 12:51:36;;;;;;;;;;;;;;;;;;5070265;28;19916;-46
2023/03/27 12:54:02;;;;;;;;;;;;;;;;;;5070233;28;20249;-45
2023/03/27 12:56:28;;;;;;;;;;;;;;;;;;5070506;28;19916;-44
2023/03/27 12:58:54;;;;;;;;;;;;;;;;;;5069659;28;19917;-45
2023/03/27 13:01:19;;;;;;;;;;;;;;;;;;5068831;28;19957;-44
2023/03/27 13:03:45;;;;;;;;;;;;;;;;;;5069243;28;19941;-45
2023/03/27 13:06:13;;;;;;;;;;;;;;;;;;5070514;28;19908;-44
2023/03/27 13:08:39;;;;;;;;;;;;;;;;;;5069394;28;19955;-44
2023/03/27 13:11:05;;;;;;;;;;;;;;;;;;5070637;28;19915;-45
2023/03/27 13:13:31;;;;;;;;;;;;;;;;;;5069499;28;19987;-45
2023/03/27 13:15:57;;;;;;;;;;;;;;;;;;5070054;28;20002;-44
2023/03/27 13:18:23;;;;;;;;;;;;;;;;;;5069600;28;19978;-46
2023/03/27 13:20:50;;;;;;;;;;;;;;;;;;5069354;28;21344;-44
2023/03/27 13:23:16;;;;;;;;;;;;;;;;;;5085344;28;19959;-44
2023/03/27 13:25:42;;;;;;;;;;;;;;;;;;5085485;28;19939;-45
2023/03/27 13:28:08;;;;;;;;;;;;;;;;;;5069488;28;19908;-45
2023/03/27 13:30:35;;;;;;;;;;;;;;;;;;5050298;28;19909;-44
2023/03/27 13:33:01;;;;;;;;;;;;;;;;;;5064165;28;19966;-44
2023/03/27 13:35:27;;;;;;;;;;;;;;;;;;5069969;28;19908;-46
2023/03/27 13:37:52;;;;;;;;;;;;;;;;;;5069442;28;20364;-45
2023/03/27 13:40:22;;;;;;;;;;;;;;;;;;5068929;28;19939;-44
2023/03/27 13:42:48;;;;;;;;;;;;;;;;;;5069543;28;19908;-46
2023/03/27 13:45:13;;;;;;;;;;;;;;;;;;5051249;28;19924;-45
2023/03/27 13:47:39;;;;;;;;;;;;;;;;;;5069136;28;19944;-45
2023/03/27 13:50:05;;;;;;;;;;;;;;;;;;5069792;28;20384;-45
2023/03/27 13:52:32;;;;;;;;;;;;;;;;;;5051176;28;19913;-44
2023/03/27 13:54:58;;;;;;;;;;;;;;;;;;5069801;28;19909;-44
2023/03/27 13:57:24;;;;;;;;;;;;;;;;;;5069196;28;19962;-45
2023/03/27 13:59:50;;;;;;;;;;;;;;;;;;5069688;28;19913;-44
2023/03/27 14:02:16;;;;;;;;;;;;;;;;;;5069662;28;20364;-44
2023/03/27 14:04:43;;;;;;;;;;;;;;;;;;5069604;28;19909;-46
2023/03/27 14:07:09;;;;;;;;;;;;;;;;;;5069614;28;19999;-44
2023/03/27 14:09:35;;;;;;;;;;;;;;;;;;5069783;28;20008;-44
2023/03/27 14:12:01;;;;;;;;;;;;;;;;;;5072494;28;19912;-44
2023/03/27 14:14:27;;;;;;;;;;;;;;;;;;5071044;28;19921;-44
2023/03/27 14:16:52;;;;;;;;;;;;;;;;;;5072578;28;19951;-44
2023/03/27 14:19:18;;;;;;;;;;;;;;;;;;5073040;28;19923;-44
2023/03/27 14:21:44;;;;;;;;;;;;;;;;;;5072919;28;19920;-46
2023/03/27 14:24:10;;;;;;;;;;;;;;;;;;5071684;28;19919;-44
2023/03/27 14:26:36;;;;;;;;;;;;;;;;;;5071475;28;19916;-45
2023/03/27 14:29:02;;;;;;;;;;;;;;;;;;5070714;28;19916;-44
2023/03/27 14:31:34;;;;;;;;;;;;;;;;;;5070027;28;19962;-45
2023/03/27 14:34:00;;;;;;;;;;;;;;;;;;5070634;28;19991;-44
2023/03/27 14:36:27;;;;;;;;;;;;;;;;;;5070837;28;19924;-46
2023/03/27 14:38:53;;;;;;;;;;;;;;;;;;5071085;28;20414;-45
2023/03/27 14:41:19;;;;;;;;;;;;;;;;;;5071358;28;19908;-46
2023/03/27 14:43:45;;;;;;;;;;;;;;;;;;5069618;28;20022;-44
2023/03/27 14:46:12;;;;;;;;;;;;;;;;;;5070779;28;20396;-47
2023/03/27 14:48:38;;;;;;;;;;;;;;;;;;5070716;28;19912;-45
2023/03/27 14:51:03;;;;;;;;;;;;;;;;;;5070428;28;19920;-45
2023/03/27 14:53:30;;;;;;;;;;;;;;;;;;5067956;28;19919;-44
2023/03/27 14:55:56;;;;;;;;;;;;;;;;;;5052725;28;19912;-45
2023/03/27 14:58:22;;;;;;;;;;;;;;;;;;5070992;28;19919;-45
2023/03/27 15:00:49;;;;;;;;;;;;;;;;;;5052442;28;20291;-45
2023/03/27 15:03:15;;;;;;;;;;;;;;;;;;5070406;28;20399;-48
2023/03/27 15:05:41;;;;;;;;;;;;;;;;;;5070278;28;19919;-46
2023/03/27 15:08:07;;;;;;;;;;;;;;;;;;5051671;28;19951;-48
2023/03/27 15:10:34;;;;;;;;;;;;;;;;;;5069244;28;19920;-45
2023/03/27 15:13:00;;;;;;;;;;;;;;;;;;5052648;28;19908;-46
2023/03/27 15:15:26;;;;;;;;;;;;;;;;;;5069503;28;19919;-48
2023/03/27 15:17:58;;;;;;;;;;;;;;;;;;5062063;28;19916;-46
2023/03/27 15:20:24;;;;;;;;;;;;;;;;;;5070931;28;19920;-48
2023/03/27 15:22:50;;;;;;;;;;;;;;;;;;5070788;28;19920;-46
2023/03/27 15:25:17;;;;;;;;;;;;;;;;;;5070570;28;20268;-45
2023/03/27 15:27:43;;;;;;;;;;;;;;;;;;5070145;28;20241;-47
2023/03/27 15:30:10;;;;;;;;;;;;;;;;;;5069706;28;19927;-44
2023/03/27 15:32:41;;;;;;;;;;;;;;;;;;5066639;28;19913;-46
2023/03/27 15:35:07;;;;;;;;;;;;;;;;;;5068948;28;20402;-44
2023/03/27 15:37:33;;;;;;;;;;;;;;;;;;5069740;28;19975;-44
2023/03/27 15:39:59;;;;;;;;;;;;;;;;;;5070139;28;19920;-44
2023/03/27 15:42:27;;;;;;;;;;;;;;;;;;5068019;28;19920;-45
2023/03/27 15:44:52;;;;;;;;;;;;;;;;;;5069189;28;19995;-46
2023/03/27 15:47:18;;;;;;;;;;;;;;;;;;5070023;28;20338;-43
2023/03/27 15:49:45;;;;;;;;;;;;;;;;;;5070000;28;19913;-45
2023/03/27 15:52:10;;;;;;;;;;;;;;;;;;5069734;28;19923;-46
2023/03/27 15:54:36;;;;;;;;;;;;;;;;;;5070050;28;19912;-45
2023/03/27 15:57:03;;;;;;;;;;;;;;;;;;5053211;28;19909;-47
2023/03/27 15:59:29;;;;;;;;;;;;;;;;;;5052683;28;20053;-44
2023/03/27 16:01:55;;;;;;;;;;;;;;;;;;5070974;28;20007;-44
2023/03/27 16:04:21;;;;;;;;;;;;;;;;;;5070735;28;19909;-45
2023/03/27 16:06:46;;;;;;;;;;;;;;;;;;5071540;28;20272;-45
2023/03/27 16:09:13;;;;;;;;;;;;;;;;;;5070957;28;19916;-46
2023/03/27 16:11:38;;;;;;;;;;;;;;;;;;5070818;28;19952;-46
2023/03/27 16:14:04;;;;;;;;;;;;;;;;;;5070683;28;19961;-45
2023/03/27 16:16:31;;;;;;;;;;;;;;;;;;5071114;28;19995;-45
2023/03/27 16:18:57;;;;;;;;;;;;;;;;;;5072670;28;19912;-44
2023/03/27 16:21:23;;;;;;;;;;;;;;;;;;5069188;28;19964;-45
2023/03/27 16:23:49;;;;;;;;;;;;;;;;;;5070709;28;20284;-44
2023/03/27 16:26:15;;;;;;;;;;;;;;;;;;5070056;28;19904;-45
2023/03/27 16:28:41;;;;;;;;;;;;;;;;;;5070038;28;19961;-45
2023/03/27 16:31:06;;;;;;;;;;;;;;;;;;5069989;28;20367;-46
2023/03/27 16:33:32;;;;;;;;;;;;;;;;;;5069158;28;20467;-44
2023/03/27 16:35:59;;;;;;;;;;;;;;;;;;5068965;28;19974;-45
2023/03/27 16:38:25;;;;;;;;;;;;;;;;;;5069623;28;19913;-49
2023/03/27 16:40:51;;;;;;;;;;;;;;;;;;5070372;28;19908;-49
2023/03/27 16:43:17;;;;;;;;;;;;;;;;;;5069754;28;20293;-48
2023/03/27 16:45:43;;;;;;;;;;;;;;;;;;5069316;28;20387;-48
2023/03/27 16:48:09;;;;;;;;;;;;;;;;;;5069640;28;19920;-46
2023/03/27 16:50:35;;;;;;;;;;;;;;;;;;5069494;28;19908;-46
2023/03/27 16:53:01;;;;;;;;;;;;;;;;;;5069608;28;19913;-47
2023/03/27 16:55:27;;;;;;;;;;;;;;;;;;5084827;28;19912;-46
2023/03/27 16:57:53;;;;;;;;;;;;;;;;;;5069818;28;20010;-44
2023/03/27 17:00:20;;;;;;;;;;;;;;;;;;5069747;28;19912;-47
2023/03/27 17:02:46;;;;;;;;;;;;;;;;;;5070102;28;19908;-44
2023/03/27 17:05:11;;;;;;;;;;;;;;;;;;5068840;28;19920;-44
2023/03/27 17:07:37;;;;;;;;;;;;;;;;;;5069081;28;19913;-47
2023/03/27 17:10:03;;;;;;;;;;;;;;;;;;5069273;28;20026;-46
2023/03/27 17:12:29;;;;;;;;;;;;;;;;;;5069462;28;19934;-45
2023/03/27 17:14:55;;;;;;;;;;;;;;;;;;5069110;28;19973;-45
2023/03/27 17:17:21;;;;;;;;;;;;;;;;;;5085098;28;20407;-47
2023/03/27 17:19:47;;;;;;;;;;;;;;;;;;5069638;28;19909;-46
2023/03/27 17:22:13;;;;;;;;;;;;;;;;;;5068934;28;19974;-49
2023/03/27 17:24:39;;;;;;;;;;;;;;;;;;5069350;28;19913;-46
2023/03/27 17:27:05;;;;;;;;;;;;;;;;;;5068862;28;19908;-45
2023/03/27 17:29:31;;;;;;;;;;;;;;;;;;5069112;28;19912;-47
2023/03/27 17:31:59;;;;;;;;;;;;;;;;;;5069087;28;19962;-47
2023/03/27 17:34:26;;;;;;;;;;;;;;;;;;5069052;28;19908;-44
2023/03/27 17:36:52;;;;;;;;;;;;;;;;;;5069528;28;19908;-46
2023/03/27 17:39:18;;;;;;;;;;;;;;;;;;5069174;28;19943;-46
2023/03/27 17:41:43;;;;;;;;;;;;;;;;;;5068835;28;19956;-44
2023/03/27 17:44:09;;;;;;;;;;;;;;;;;;5068889;28;20451;-45
2023/03/27 17:46:35;;;;;;;;;;;;;;;;;;5070801;28;19955;-46
2023/03/27 17:49:01;;;;;;;;;;;;;;;;;;5073431;28;19988;-48
2023/03/27 17:51:27;;;;;;;;;;;;;;;;;;5073032;28;19915;-48
2023/03/27 17:53:53;;;;;;;;;;;;;;;;;;5073580;28;20299;-45
2023/03/27 17:56:19;;;;;;;;;;;;;;;;;;5072036;28;19954;-49
2023/03/27 17:58:47;;;;;;;;;;;;;;;;;;5071621;28;20387;-44
2023/03/27 18:01:14;;;;;;;;;;;;;;;;;;5070712;28;19981;-47
2023/03/27 18:03:40;;;;;;;;;;;;;;;;;;5068886;28;19913;-46
2023/03/27 18:06:06;;;;;;;;;;;;;;;;;;5069188;28;19919;-46
2023/03/27 18:08:33;;;;;;;;;;;;;;;;;;5052203;28;19920;-47
2023/03/27 18:10:58;;;;;;;;;;;;;;;;;;5070214;28;19919;-45
2023/03/27 18:13:24;;;;;;;;;;;;;;;;;;5070465;28;20362;-45
2023/03/27 18:15:55;;;;;;;;;;;;;;;;;;5053038;28;19912;-45
2023/03/27 18:18:21;;;;;;;;;;;;;;;;;;5070631;28;20386;-46
2023/03/27 18:20:47;;;;;;;;;;;;;;;;;;5069901;28;19919;-47
2023/03/27 18:23:13;;;;;;;;;;;;;;;;;;5069835;28;19916;-45
2023/03/27 18:25:41;;;;;;;;;;;;;;;;;;5069104;28;20010;-47
2023/03/27 18:28:07;;;;;;;;;;;;;;;;;;5069669;28;20439;-46
2023/03/27 18:30:33;;;;;;;;;;;;;;;;;;5068824;28;20010;-45
2023/03/27 18:32:59;;;;;;;;;;;;;;;;;;5069341;28;19921;-48
2023/03/27 18:35:25;;;;;;;;;;;;;;;;;;5068816;28;19924;-46
2023/03/27 18:37:51;;;;;;;;;;;;;;;;;;5086356;28;19943;-47
2023/03/27 18:40:17;;;;;;;;;;;;;;;;;;5069966;28;19912;-46
2023/03/27 18:42:43;;;;;;;;;;;;;;;;;;5070164;28;19920;-45
2023/03/27 18:45:09;;;;;;;;;;;;;;;;;;5070240;28;20320;-46
2023/03/27 18:47:35;;;;;;;;;;;;;;;;;;5051551;28;20054;-45
2023/03/27 18:50:01;;;;;;;;;;;;;;;;;;5086183;28;20046;-46
2023/03/27 18:52:27;;;;;;;;;;;;;;;;;;5048663;28;19923;-46
2023/03/27 18:54:53;;;;;;;;;;;;;;;;;;5046916;28;19913;-48
2023/03/27 18:57:19;;;;;;;;;;;;;;;;;;5051485;28;19987;-45
2023/03/27 18:59:45;;;;;;;;;;;;;;;;;;5070320;28;19955;-45
2023/03/27 19:02:13;;;;;;;;;;;;;;;;;;5047947;28;20392;-46
2023/03/27 19:04:38;;;;;;;;;;;;;;;;;;5068100;28;19912;-46
2023/03/27 19:07:04;;;;;;;;;;;;;;;;;;5067177;28;19919;-45
2023/03/27 19:09:30;;;;;;;;;;;;;;;;;;5068778;28;20012;-46
2023/03/27 19:11:56;;;;;;;;;;;;;;;;;;5068129;28;20398;-45
2023/03/27 19:14:22;;;;;;;;;;;;;;;;;;5069787;28;19912;-45
2023/03/27 19:16:50;;;;;;;;;;;;;;;;;;5069637;28;19919;-46
2023/03/27 19:19:16;;;;;;;;;;;;;;;;;;5069803;28;19923;-45
2023/03/27 19:21:42;;;;;;;;;;;;;;;;;;5068157;28;20337;-46
2023/03/27 19:24:08;;;;;;;;;;;;;;;;;;5069464;28;19913;-45
2023/03/27 19:26:34;;;;;;;;;;;;;;;;;;5069787;28;20374;-46
2023/03/27 19:29:00;;;;;;;;;;;;;;;;;;5070102;28;19913;-46
2023/03/27 19:31:26;;;;;;;;;;;;;;;;;;5069562;28;20322;-49
2023/03/27 19:33:52;;;;;;;;;;;;;;;;;;5070869;28;20435;-47
2023/03/27 19:36:18;;;;;;;;;;;;;;;;;;5070373;28;19959;-48
2023/03/27 19:38:44;;;;;;;;;;;;;;;;;;5051791;28;19913;-47
2023/03/27 19:41:10;;;;;;;;;;;;;;;;;;5069898;28;19914;-47
2023/03/27 19:43:36;;;;;;;;;;;;;;;;;;5069318;28;19913;-50
2023/03/27 19:46:02;;;;;;;;;;;;;;;;;;5069548;28;20395;-46
2023/03/27 19:48:28;;;;;;;;;;;;;;;;;;5068909;28;19982;-48
2023/03/27 19:50:54;;;;;;;;;;;;;;;;;;5069125;28;19919;-48
2023/03/27 19:53:21;;;;;;;;;;;;;;;;;;5069981;28;19915;-45
2023/03/27 19:55:47;;;;;;;;;;;;;;;;;;5069071;28;19916;-47
2023/03/27 19:58:12;;;;;;;;;;;;;;;;;;5069044;28;19979;-46
2023/03/27 20:00:38;;;;;;;;;;;;;;;;;;5050949;28;19919;-46
2023/03/27 20:03:08;;;;;;;;;;;;;;;;;;5069581;28;19915;-47
2023/03/27 20:05:34;;;;;;;;;;;;;;;;;;5069224;28;19962;-48
2023/03/27 20:08:00;;;;;;;;;;;;;;;;;;5051234;28;20006;-46
2023/03/27 20:10:26;;;;;;;;;;;;;;;;;;5068364;28;20413;-47
2023/03/27 20:12:52;;;;;;;;;;;;;;;;;;5069340;28;19919;-47
2023/03/27 20:15:18;;;;;;;;;;;;;;;;;;5069883;28;20474;-49
2023/03/27 20:17:44;;;;;;;;;;;;;;;;;;5050221;28;19966;-45
2023/03/27 20:20:10;;;;;;;;;;;;;;;;;;5068671;28;19919;-47
2023/03/27 20:22:36;;;;;;;;;;;;;;;;;;5068774;28;19915;-46
2023/03/27 20:25:02;;;;;;;;;;;;;;;;;;5068686;28;19998;-46
2023/03/27 20:27:27;;;;;;;;;;;;;;;;;;5068132;28;19923;-45
2023/03/27 20:29:53;;;;;;;;;;;;;;;;;;5076646;28;19916;-46
2023/03/27 20:32:19;;;;;;;;;;;;;;;;;;5089961;28;19930;-45
2023/03/27 20:34:47;;;;;;;;;;;;;;;;;;5073726;28;19909;-49
2023/03/27 20:37:13;;;;;;;;;;;;;;;;;;5068757;28;19948;-45
2023/03/27 20:39:43;;;;;;;;;;;;;;;;;;5068640;28;20374;-46
2023/03/27 20:42:13;;;;;;;;;;;;;;;;;;5068641;28;19931;-49
2023/03/27 20:44:39;;;;;;;;;;;;;;;;;;5068403;28;19908;-47
2023/03/27 20:47:09;;;;;;;;;;;;;;;;;;5068565;28;19908;-46
2023/03/27 20:49:35;;;;;;;;;;;;;;;;;;5050466;28;19908;-46
2023/03/27 20:52:02;;;;;;;;;;;;;;;;;;5067873;28;20387;-48
2023/03/27 20:54:28;;;;;;;;;;;;;;;;;;5067915;28;19909;-47
2023/03/27 20:56:54;;;;;;;;;;;;;;;;;;5049888;28;19972;-45
2023/03/27 20:59:20;;;;;;;;;;;;;;;;;;5067916;28;20011;-45
2023/03/27 21:01:46;;;;;;;;;;;;;;;;;;5069200;28;20347;-46
2023/03/27 21:04:12;;;;;;;;;;;;;;;;;;5050031;28;20384;-45
2023/03/27 21:06:38;;;;;;;;;;;;;;;;;;5067696;28;20307;-45
2023/03/27 21:09:04;;;;;;;;;;;;;;;;;;5067857;28;19916;-45
2023/03/27 21:11:29;;;;;;;;;;;;;;;;;;5067871;28;20380;-49
2023/03/27 21:13:55;;;;;;;;;;;;;;;;;;5068214;28;19908;-46
2023/03/27 21:16:21;;;;;;;;;;;;;;;;;;5068026;28;19962;-46
2023/03/27 21:18:47;;;;;;;;;;;;;;;;;;5068293;28;19920;-47
2023/03/27 21:21:13;;;;;;;;;;;;;;;;;;5067071;28;19917;-46
2023/03/27 21:23:39;;;;;;;;;;;;;;;;;;5049287;28;19981;-46
2023/03/27 21:26:05;;;;;;;;;;;;;;;;;;5067466;28;20399;-49
2023/03/27 21:28:31;;;;;;;;;;;;;;;;;;5067615;28;20001;-47
2023/03/27 21:30:58;;;;;;;;;;;;;;;;;;5068093;28;19931;-45
2023/03/27 21:33:24;;;;;;;;;;;;;;;;;;5049705;28;20625;-46
2023/03/27 21:35:50;;;;;;;;;;;;;;;;;;5068589;28;19944;-46
2023/03/27 21:38:15;;;;;;;;;;;;;;;;;;5049847;28;20054;-45
2023/03/27 21:40:41;;;;;;;;;;;;;;;;;;5067518;28;19995;-47
2023/03/27 21:43:07;;;;;;;;;;;;;;;;;;5067355;28;20346;-47